Time;durP1;ratioP1;P1;durP2;ratioP2;P2;SDS_P1;SDS_P2;PMS_P1;PMS_P2;Temp;Humidity;BMP_temperature;BMP_pressure;BME280_temperature;BME280_humidity;BME280_pressure;Samples;Min_cycle;Max_cycle;Signal;HPM_P1;HPM_P2
2022/06/02 00:01:18;;;;;;;0.60;0.60;;;22.40;46.80;;;;;;5055547;28;20058;-59
2022/06/02 00:03:56;;;;;;;0.70;0.60;;;22.40;46.80;;;;;;5054635;28;20485;-60
2022/06/02 00:06:34;;;;;;;0.70;0.60;;;22.40;46.80;;;;;;5051616;28;20031;-60
2022/06/02 00:09:03;;;;;;;0.80;0.57;;;22.30;46.70;;;;;;5052738;28;20078;-59
2022/06/02 00:11:50;;;;;;;0.73;0.60;;;22.40;46.80;;;;;;5057670;28;20079;-62
2022/06/02 00:14:25;;;;;;;0.93;0.60;;;22.40;46.80;;;;;;5057898;28;20083;-59
2022/06/02 00:17:00;;;;;;;0.77;0.50;;;22.40;46.80;;;;;;5058236;28;20039;-62
2022/06/02 00:19:55;;;;;;;0.60;0.60;;;22.40;46.80;;;;;;5058093;28;20139;-62
2022/06/02 00:22:24;;;;;;;1.05;0.70;;;22.30;46.80;;;;;;5055773;28;20040;-59
2022/06/02 00:25:00;;;;;;;0.60;0.60;;;22.30;46.70;;;;;;5056587;28;20091;-58
2022/06/02 00:27:36;;;;;;;1.33;0.65;;;22.40;46.80;;;;;;5058389;28;20544;-60
2022/06/02 00:30:20;;;;;;;0.75;0.60;;;22.30;46.70;;;;;;5058896;28;20429;-58
2022/06/02 00:32:52;;;;;;;1.20;0.70;;;22.30;46.70;;;;;;5057809;28;20040;-60
2022/06/02 00:35:40;;;;;;;0.60;0.57;;;22.30;46.70;;;;;;5056569;28;20103;-62
2022/06/02 00:38:28;;;;;;;0.77;0.57;;;22.30;46.80;;;;;;5055824;28;20039;-62
2022/06/02 00:40:56;;;;;;;0.95;0.70;;;22.30;46.70;;;;;;5058400;28;20082;-59
2022/06/02 00:43:31;;;;;;;1.02;0.70;;;22.30;46.70;;;;;;5057827;28;20048;-62
2022/06/02 00:46:09;;;;;;;0.93;0.60;;;22.30;46.70;;;;;;5058303;28;20559;-63
2022/06/02 00:48:40;;;;;;;1.00;0.60;;;22.30;46.70;;;;;;5058623;28;20039;-57
2022/06/02 00:51:17;;;;;;;0.65;0.63;;;22.30;46.70;;;;;;5056640;28;20108;-60
2022/06/02 00:57:32;;;;;;;0.60;0.60;;;22.30;46.70;;;;;;5057317;28;20051;-63
2022/06/02 01:00:07;;;;;;;0.85;0.60;;;22.30;46.70;;;;;;5057332;28;20090;-62
2022/06/02 01:02:54;;;;;;;0.70;0.63;;;22.30;46.70;;;;;;5057193;28;20048;-62
2022/06/02 01:05:28;;;;;;;1.02;0.80;;;22.30;46.70;;;;;;5056782;28;20124;-63
2022/06/02 01:08:25;;;;;;;0.85;0.60;;;22.30;46.70;;;;;;5055034;28;20342;-59
2022/06/02 01:11:10;;;;;;;1.48;0.70;;;22.30;46.70;;;;;;5029461;28;20040;-62
2022/06/02 01:14:01;;;;;;;0.60;0.60;;;22.30;46.70;;;;;;5056860;28;20044;-61
2022/06/02 01:16:44;;;;;;;0.93;0.60;;;22.30;46.70;;;;;;5057324;28;20105;-60
2022/06/02 01:19:24;;;;;;;1.23;0.70;;;22.30;46.70;;;;;;5057596;28;20086;-63
2022/06/02 01:22:08;;;;;;;;;;;22.30;46.70;;;;;;5055212;28;20025;-60
2022/06/02 01:24:39;;;;;;;0.88;0.60;;;22.30;46.70;;;;;;5054851;28;19942;-63
2022/06/02 01:27:05;;;;;;;0.50;0.50;;;22.30;46.70;;;;;;5057224;28;20021;-60
2022/06/02 01:29:49;;;;;;;0.90;0.70;;;22.30;46.70;;;;;;5056934;28;20881;-62
2022/06/02 01:32:20;;;;;;;0.90;0.60;;;22.30;46.70;;;;;;5055172;28;20037;-58
2022/06/02 01:35:29;;;;;;;1.40;0.70;;;22.30;46.70;;;;;;5055832;28;20115;-62
2022/06/02 01:38:43;;;;;;;0.68;0.60;;;22.30;46.90;;;;;;5055063;28;20029;-57
2022/06/02 01:41:41;;;;;;;0.50;0.50;;;22.30;46.70;;;;;;5052338;28;20124;-59
2022/06/02 01:44:18;;;;;;;0.60;0.60;;;22.30;46.70;;;;;;5036354;28;20408;-58
2022/06/02 01:46:56;;;;;;;0.95;0.70;;;22.30;46.70;;;;;;5056482;28;20115;-62
2022/06/02 01:49:49;;;;;;;0.70;0.57;;;22.30;46.70;;;;;;5053686;28;20035;-57
2022/06/02 01:52:47;;;;;;;0.60;0.57;;;22.30;46.70;;;;;;5054096;28;20029;-60
2022/06/02 01:55:31;;;;;;;1.17;0.60;;;22.30;46.70;;;;;;5020711;28;20040;-60
2022/06/02 01:58:05;;;;;;;1.33;0.73;;;22.20;46.70;;;;;;5058045;28;20032;-58
2022/06/02 02:00:34;;;;;;;0.50;0.50;;;22.20;46.70;;;;;;5055987;28;20040;-58
2022/06/02 02:03:23;;;;;;;0.70;0.70;;;22.20;46.70;;;;;;5056505;28;20021;-63
2022/06/02 02:06:12;;;;;;;1.08;0.70;;;22.20;46.70;;;;;;5054539;28;20052;-62
2022/06/02 02:09:01;;;;;;;;;;;22.20;46.70;;;;;;5055324;28;20039;-62
2022/06/02 02:11:47;;;;;;;0.63;0.60;;;22.20;46.70;;;;;;5047622;28;19915;-63
2022/06/02 02:14:40;;;;;;;1.20;0.80;;;22.20;46.70;;;;;;5056682;28;20279;-63
2022/06/02 02:17:43;;;;;;;1.13;0.80;;;22.20;46.70;;;;;;5054397;28;20032;-63
2022/06/02 02:20:09;;;;;;;0.60;0.60;;;22.20;46.70;;;;;;5056472;28;20040;-62
2022/06/02 02:23:13;;;;;;;1.00;0.70;;;22.20;46.60;;;;;;5054041;28;20029;-59
2022/06/02 02:25:59;;;;;;;0.50;0.50;;;22.20;46.70;;;;;;4993774;28;20062;-64
2022/06/02 02:28:34;;;;;;;0.60;0.60;;;22.10;46.60;;;;;;5055195;28;20041;-59
2022/06/02 02:31:09;;;;;;;0.60;0.60;;;22.20;46.70;;;;;;5054131;28;20157;-60
2022/06/02 02:33:56;;;;;;;1.05;0.70;;;22.20;46.70;;;;;;5054931;28;20036;-58
2022/06/02 02:36:51;;;;;;;0.80;0.65;;;22.20;46.70;;;;;;5053990;28;20835;-58
2022/06/02 02:39:19;;;;;;;1.67;0.70;;;22.20;46.70;;;;;;5054791;28;20495;-63
2022/06/02 02:41:59;;;;;;;0.50;0.50;;;22.20;46.70;;;;;;5055518;28;20051;-63
2022/06/02 02:45:08;;;;;;;0.70;0.60;;;22.20;46.70;;;;;;5054744;28;20075;-59
2022/06/02 02:47:36;;;;;;;0.77;0.77;;;22.10;46.60;;;;;;5054702;28;20025;-61
2022/06/02 02:50:19;;;;;;;0.80;0.70;;;22.10;46.60;;;;;;5055715;28;20298;-60
2022/06/02 02:53:04;;;;;;;0.65;0.60;;;22.10;46.60;;;;;;5052718;28;20051;-61
2022/06/02 02:55:55;;;;;;;0.60;0.60;;;22.10;46.60;;;;;;5055160;28;20075;-63
2022/06/02 02:58:21;;;;;;;1.15;0.80;;;22.20;46.70;;;;;;5056333;28;20181;-56
2022/06/02 03:01:02;;;;;;;0.70;0.60;;;22.10;46.60;;;;;;5056168;28;20727;-59
2022/06/02 03:03:41;;;;;;;0.95;0.60;;;22.10;46.60;;;;;;5054301;28;20032;-58
2022/06/02 03:06:23;;;;;;;0.57;0.50;;;22.10;46.60;;;;;;5053276;28;20029;-58
2022/06/02 03:09:27;;;;;;;0.70;0.70;;;22.10;46.60;;;;;;5055230;28;20067;-61
2022/06/02 03:11:53;;;;;;;0.98;0.63;;;22.20;46.70;;;;;;5054640;28;20040;-59
2022/06/02 03:14:47;;;;;;;0.90;0.75;;;22.10;46.60;;;;;;5053908;28;20028;-61
2022/06/02 03:17:42;;;;;;;0.90;0.70;;;22.10;46.60;;;;;;5056851;28;20036;-63
2022/06/02 03:20:26;;;;;;;0.70;0.52;;;22.10;46.60;;;;;;5052827;28;20119;-59
2022/06/02 03:22:57;;;;;;;0.95;0.70;;;22.10;46.60;;;;;;5053509;28;20136;-64
2022/06/02 03:25:31;;;;;;;0.68;0.60;;;22.10;47.20;;;;;;5050940;28;20035;-61
2022/06/02 03:28:21;;;;;;;1.00;0.73;;;22.10;46.60;;;;;;5054068;28;20046;-60
2022/06/02 03:31:02;;;;;;;0.60;0.60;;;22.10;46.60;;;;;;5052787;28;20040;-62
2022/06/02 03:33:46;;;;;;;0.85;0.60;;;22.10;46.60;;;;;;5052387;28;20561;-63
2022/06/02 03:36:39;;;;;;;1.00;0.60;;;22.10;46.70;;;;;;5052243;28;20028;-59
2022/06/02 03:39:30;;;;;;;0.70;0.70;;;22.10;46.60;;;;;;5052975;28;20058;-60
2022/06/02 03:42:31;;;;;;;0.55;0.50;;;22.10;46.70;;;;;;5053766;28;20113;-58
2022/06/02 03:45:09;;;;;;;0.93;0.70;;;22.10;46.60;;;;;;4936008;28;20043;-60
2022/06/02 03:48:08;;;;;;;0.50;0.50;;;22.10;46.60;;;;;;5042961;28;20036;-60
2022/06/02 03:51:07;;;;;;;0.63;0.57;;;22.10;46.70;;;;;;5059984;28;20048;-58
2022/06/02 03:53:41;;;;;;;0.93;0.60;;;22.10;46.70;;;;;;5057599;28;20032;-59
2022/06/02 03:56:28;;;;;;;0.63;0.60;;;22.10;46.70;;;;;;5058862;28;20691;-62
2022/06/02 03:59:19;;;;;;;0.77;0.63;;;22.00;46.60;;;;;;5058058;28;20032;-58
2022/06/02 04:01:55;;;;;;;0.77;0.70;;;22.10;46.70;;;;;;5056901;28;20135;-62
2022/06/02 04:04:37;;;;;;;0.95;0.70;;;22.00;46.60;;;;;;5058852;28;20024;-59
2022/06/02 04:07:37;;;;;;;1.00;0.70;;;22.10;46.70;;;;;;5056414;28;20054;-61
2022/06/02 04:10:19;;;;;;;0.82;0.60;;;22.00;46.60;;;;;;5056112;28;20728;-59
2022/06/02 04:15:51;;;;;;;0.95;0.68;;;22.00;46.60;;;;;;5057872;28;20221;-61
2022/06/02 04:18:27;;;;;;;0.60;0.50;;;22.10;47.20;;;;;;5058052;28;20035;-64
2022/06/02 04:21:09;;;;;;;0.70;0.60;;;22.00;46.70;;;;;;5059600;28;20657;-62
2022/06/02 04:23:50;;;;;;;0.93;0.60;;;22.00;46.70;;;;;;5056585;28;20143;-58
2022/06/02 04:26:49;;;;;;;0.70;0.70;;;22.00;46.70;;;;;;5056790;28;20307;-58
2022/06/02 04:29:36;;;;;;;0.70;0.70;;;22.00;46.70;;;;;;5057381;28;20456;-60
2022/06/02 04:32:07;;;;;;;1.10;0.80;;;22.00;46.70;;;;;;5058458;28;20064;-64
2022/06/02 04:35:26;;;;;;;0.98;0.68;;;22.00;46.70;;;;;;5057450;28;20028;-62
2022/06/02 04:38:36;;;;;;;0.73;0.70;;;22.00;46.80;;;;;;4951322;28;20054;-63
2022/06/02 04:41:20;;;;;;;0.98;0.70;;;22.00;46.80;;;;;;4921000;28;20085;-62
2022/06/02 04:43:58;;;;;;;0.60;0.60;;;22.00;46.70;;;;;;5045197;28;20040;-62
2022/06/02 04:46:51;;;;;;;0.75;0.70;;;22.00;46.80;;;;;;5055789;28;21005;-61
2022/06/02 04:49:44;;;;;;;0.82;0.68;;;22.00;47.30;;;;;;5058078;28;20029;-61
2022/06/02 04:52:34;;;;;;;0.70;0.60;;;22.00;46.80;;;;;;5055301;28;20093;-64
2022/06/02 04:55:29;;;;;;;0.73;0.70;;;22.00;46.80;;;;;;5057349;28;20036;-61
2022/06/02 04:58:07;;;;;;;0.88;0.60;;;22.00;46.80;;;;;;5057087;28;20017;-58
2022/06/02 05:01:02;;;;;;;0.47;0.47;;;22.00;46.80;;;;;;5054648;28;20044;-57
2022/06/02 05:03:50;;;;;;;0.77;0.68;;;22.00;46.80;;;;;;5056637;28;20112;-60
2022/06/02 05:06:49;;;;;;;0.90;0.60;;;22.00;46.80;;;;;;5055002;28;20029;-62
2022/06/02 05:09:28;;;;;;;;;;;21.90;46.80;;;;;;5055655;28;20105;-62
2022/06/02 05:11:59;;;;;;;0.88;0.52;;;22.00;46.80;;;;;;5056311;28;19916;-64
2022/06/02 05:14:32;;;;;;;0.93;0.60;;;22.00;46.80;;;;;;5057764;28;20055;-57
2022/06/02 05:17:38;;;;;;;0.60;0.60;;;22.00;46.80;;;;;;5057740;28;20037;-57
2022/06/02 05:20:48;;;;;;;1.20;0.80;;;22.00;46.80;;;;;;5058035;28;20135;-60
2022/06/02 05:23:42;;;;;;;0.77;0.70;;;22.00;46.90;;;;;;5029900;28;20068;-60
2022/06/02 05:26:10;;;;;;;0.73;0.60;;;22.00;46.90;;;;;;5058072;28;20047;-57
2022/06/02 05:29:04;;;;;;;0.90;0.73;;;22.00;46.90;;;;;;5057031;28;20074;-59
2022/06/02 05:31:59;;;;;;;0.70;0.60;;;22.00;46.90;;;;;;5056152;28;20297;-60
2022/06/02 05:35:04;;;;;;;0.70;0.70;;;21.90;46.90;;;;;;5056489;28;20040;-59
2022/06/02 05:37:51;;;;;;;0.73;0.60;;;21.90;46.80;;;;;;5054477;28;20064;-61
2022/06/02 05:40:20;;;;;;;1.70;0.70;;;22.00;46.90;;;;;;5057305;28;20409;-58
2022/06/02 05:43:25;;;;;;;0.80;0.70;;;21.90;46.90;;;;;;5055900;28;20111;-63
2022/06/02 05:45:54;;;;;;;0.75;0.70;;;21.90;46.90;;;;;;5055948;28;20039;-59
2022/06/02 05:48:47;;;;;;;1.37;0.80;;;21.90;46.90;;;;;;5056317;28;20112;-59
2022/06/02 05:51:20;;;;;;;1.50;0.80;;;21.90;46.90;;;;;;5055429;28;20055;-59
2022/06/02 05:53:53;;;;;;;1.00;0.70;;;21.90;46.90;;;;;;5056213;28;20039;-62
2022/06/02 05:56:31;;;;;;;0.77;0.70;;;21.90;46.90;;;;;;5056831;28;20032;-60
2022/06/02 05:59:02;;;;;;;1.73;0.80;;;21.90;46.90;;;;;;5039019;28;20124;-59
2022/06/02 06:02:18;;;;;;;1.13;0.70;;;21.90;46.90;;;;;;5055504;28;20748;-59
2022/06/02 06:05:02;;;;;;;1.27;0.70;;;21.90;46.90;;;;;;4990474;28;20055;-59
2022/06/02 06:07:48;;;;;;;1.35;0.73;;;21.90;46.90;;;;;;5053767;28;20067;-61
2022/06/02 06:10:37;;;;;;;1.05;0.70;;;21.90;46.90;;;;;;5055186;28;20862;-61
2022/06/02 06:13:02;;;;;;;0.80;0.60;;;21.90;46.90;;;;;;5055526;28;20039;-60
2022/06/02 06:15:51;;;;;;;1.55;0.80;;;21.90;46.90;;;;;;5055821;28;20484;-64
2022/06/02 06:18:35;;;;;;;0.65;0.60;;;21.90;46.90;;;;;;5058016;28;20028;-59
2022/06/02 06:21:13;;;;;;;1.42;0.82;;;21.90;46.90;;;;;;5055242;28;20035;-60
2022/06/02 06:23:47;;;;;;;0.75;0.68;;;21.90;46.90;;;;;;5055955;28;20025;-63
2022/06/02 06:26:33;;;;;;;0.90;0.60;;;21.90;46.90;;;;;;5055363;28;20020;-58
2022/06/02 06:29:05;;;;;;;0.85;0.60;;;21.90;46.90;;;;;;5057007;28;20126;-59
2022/06/02 06:31:57;;;;;;;1.15;0.70;;;21.90;46.90;;;;;;5053600;28;20146;-59
2022/06/02 06:34:44;;;;;;;1.20;0.70;;;21.90;46.90;;;;;;5055597;28;20032;-63
2022/06/02 06:37:24;;;;;;;1.48;0.70;;;21.90;46.90;;;;;;5053050;28;20104;-58
2022/06/02 06:40:17;;;;;;;0.85;0.60;;;21.90;46.90;;;;;;5053749;28;20644;-63
2022/06/02 06:42:50;;;;;;;0.88;0.70;;;21.90;46.90;;;;;;5056561;28;20043;-63
2022/06/02 06:45:26;;;;;;;0.68;0.60;;;21.90;46.90;;;;;;5055896;28;20522;-62
2022/06/02 06:48:09;;;;;;;1.20;0.80;;;21.90;46.90;;;;;;5054752;28;20097;-58
2022/06/02 06:50:39;;;;;;;1.80;0.70;;;21.90;46.90;;;;;;5055361;28;20024;-63
2022/06/02 06:53:27;;;;;;;1.15;0.50;;;21.90;46.90;;;;;;5054012;28;20029;-59
2022/06/02 06:55:59;;;;;;;0.88;0.60;;;21.90;46.90;;;;;;5054554;28;20036;-58
2022/06/02 06:58:44;;;;;;;0.65;0.63;;;21.90;46.90;;;;;;5054648;28;20504;-59
2022/06/02 07:01:28;;;;;;;0.60;0.60;;;21.90;46.90;;;;;;5053745;28;20524;-60
2022/06/02 07:04:22;;;;;;;0.70;0.60;;;21.90;46.90;;;;;;5054790;28;20041;-57
2022/06/02 07:07:08;;;;;;;0.60;0.60;;;21.90;46.90;;;;;;5053245;28;20032;-63
2022/06/02 07:09:47;;;;;;;0.88;0.60;;;21.90;46.90;;;;;;5053635;28;20032;-62
2022/06/02 07:12:51;;;;;;;0.63;0.60;;;21.90;46.90;;;;;;5054834;28;20086;-62
2022/06/02 07:15:40;;;;;;;0.60;0.60;;;21.90;46.90;;;;;;5054532;28;20037;-63
2022/06/02 07:18:24;;;;;;;;;;;21.90;46.90;;;;;;5054873;28;20035;-59
2022/06/02 07:21:00;;;;;;;1.63;0.60;;;21.90;46.90;;;;;;5054439;28;19908;-62
2022/06/02 07:23:53;;;;;;;0.70;0.60;;;21.90;46.90;;;;;;5052805;28;20025;-58
2022/06/02 07:26:39;;;;;;;1.88;0.70;;;21.90;46.90;;;;;;5056284;28;20048;-59
2022/06/02 07:29:47;;;;;;;1.13;0.70;;;21.90;47.00;;;;;;5054872;28;20056;-61
2022/06/02 07:32:50;;;;;;;1.05;0.70;;;21.90;47.00;;;;;;5025707;28;20536;-61
2022/06/02 07:35:46;;;;;;;1.13;0.70;;;21.90;47.00;;;;;;5034243;28;20036;-62
2022/06/02 07:38:21;;;;;;;0.80;0.60;;;21.90;47.00;;;;;;5033443;28;20436;-61
2022/06/02 07:40:57;;;;;;;1.25;0.68;;;21.90;47.00;;;;;;5016127;28;20170;-59
2022/06/02 07:43:35;;;;;;;0.73;0.60;;;21.90;47.00;;;;;;5034795;28;20423;-62
2022/06/02 07:46:12;;;;;;;1.42;0.70;;;21.80;47.00;;;;;;5036081;28;20048;-61
2022/06/02 07:49:15;;;;;;;1.40;0.60;;;21.90;47.10;;;;;;5034485;28;20040;-64
2022/06/02 07:52:02;;;;;;;2.08;0.63;;;21.90;47.10;;;;;;5032896;28;20021;-63
2022/06/02 07:54:44;;;;;;;1.35;0.70;;;21.80;47.10;;;;;;5033176;28;20449;-60
2022/06/02 07:57:36;;;;;;;0.70;0.60;;;21.90;47.10;;;;;;5033120;28;20025;-60
2022/06/02 08:00:21;;;;;;;1.08;0.70;;;21.90;47.20;;;;;;5019959;28;20040;-59
2022/06/02 08:03:21;;;;;;;0.80;0.65;;;21.90;47.20;;;;;;5032971;28;20049;-62
2022/06/02 08:05:58;;;;;;;1.13;0.90;;;21.90;47.20;;;;;;5033471;28;20045;-61
2022/06/02 08:08:29;;;;;;;0.90;0.68;;;21.90;47.20;;;;;;5033069;28;20029;-62
2022/06/02 08:11:10;;;;;;;0.68;0.50;;;21.80;47.20;;;;;;5034346;28;20372;-60
2022/06/02 08:13:50;;;;;;;0.98;0.70;;;21.90;47.20;;;;;;5034081;28;20119;-59
2022/06/02 08:16:23;;;;;;;0.73;0.60;;;21.80;47.70;;;;;;5034401;28;20028;-57
2022/06/02 08:19:15;;;;;;;0.63;0.60;;;21.90;47.20;;;;;;5033969;28;20032;-56
2022/06/02 08:21:57;;;;;;;0.88;0.60;;;21.90;47.30;;;;;;5032016;28;20033;-61
2022/06/02 08:24:42;;;;;;;0.55;0.55;;;21.90;47.20;;;;;;5031813;28;20033;-63
2022/06/02 08:27:34;;;;;;;0.70;0.60;;;21.80;47.20;;;;;;5033990;28;20032;-63
2022/06/02 08:30:42;;;;;;;0.45;0.45;;;21.90;47.30;;;;;;5034086;28;20044;-61
2022/06/02 08:33:30;;;;;;;1.30;0.70;;;21.80;47.20;;;;;;4992364;28;20042;-58
2022/06/02 08:36:18;;;;;;;0.68;0.55;;;21.80;47.30;;;;;;5055007;28;20055;-58
2022/06/02 08:39:12;;;;;;;0.77;0.57;;;21.80;47.30;;;;;;5057937;28;20455;-60
2022/06/02 08:41:59;;;;;;;0.65;0.60;;;21.90;47.30;;;;;;5052926;28;20120;-60
2022/06/02 08:45:01;;;;;;;0.80;0.60;;;21.80;47.30;;;;;;5059171;28;20104;-62
2022/06/02 08:48:04;;;;;;;0.80;0.60;;;21.80;47.30;;;;;;5058534;28;20028;-60
2022/06/02 08:50:40;;;;;;;0.70;0.60;;;21.80;47.30;;;;;;5056691;28;20100;-59
2022/06/02 08:53:37;;;;;;;0.60;0.50;;;21.80;47.30;;;;;;5055380;28;20020;-60
2022/06/02 08:56:40;;;;;;;0.65;0.50;;;21.80;47.30;;;;;;5057590;28;20044;-62
2022/06/02 08:59:44;;;;;;;0.75;0.60;;;21.90;47.40;;;;;;5057235;28;20035;-62
2022/06/02 09:02:31;;;;;;;0.60;0.60;;;21.80;47.40;;;;;;5032391;28;20089;-63
2022/06/02 09:05:34;;;;;;;0.47;0.47;;;21.90;47.90;;;;;;5057085;28;20063;-63
2022/06/02 09:08:39;;;;;;;0.60;0.60;;;21.80;47.40;;;;;;5056372;28;20544;-56
2022/06/02 09:11:11;;;;;;;0.93;0.50;;;21.90;47.40;;;;;;5055571;28;20096;-58
2022/06/02 09:13:38;;;;;;;0.70;0.70;;;21.90;47.40;;;;;;5057611;28;20459;-58
2022/06/02 09:16:16;;;;;;;0.90;0.60;;;21.90;47.40;;;;;;5057349;28;20043;-58
2022/06/02 09:19:19;;;;;;;1.98;0.68;;;21.90;47.40;;;;;;5058479;28;20033;-63
2022/06/02 09:21:54;;;;;;;0.80;0.60;;;21.90;47.30;;;;;;5055412;28;20051;-56
2022/06/02 09:25:04;;;;;;;0.68;0.52;;;21.90;47.30;;;;;;5055868;28;20064;-62
2022/06/02 09:27:35;;;;;;;1.02;0.60;;;21.90;47.30;;;;;;4970986;28;20034;-62
2022/06/02 09:30:11;;;;;;;0.75;0.60;;;21.80;47.30;;;;;;5048379;28;20115;-63
2022/06/02 09:32:54;;;;;;;0.50;0.50;;;21.90;47.30;;;;;;5056487;28;20408;-62
2022/06/02 09:35:22;;;;;;;0.77;0.60;;;21.90;47.30;;;;;;5057301;28;20033;-59
2022/06/02 09:37:51;;;;;;;0.70;0.50;;;21.90;47.30;;;;;;5055202;28;20176;-61
2022/06/02 09:40:45;;;;;;;0.80;0.60;;;21.90;47.30;;;;;;5054555;28;21170;-57
2022/06/02 09:43:36;;;;;;;0.50;0.50;;;21.90;47.30;;;;;;5002447;28;20074;-59
2022/06/02 09:46:29;;;;;;;0.82;0.60;;;21.90;47.30;;;;;;5058234;28;20021;-57
2022/06/02 09:49:26;;;;;;;0.73;0.52;;;21.90;47.30;;;;;;5057460;28;20048;-60
2022/06/02 09:52:08;;;;;;;0.95;0.60;;;21.90;47.30;;;;;;5050901;28;20411;-62
2022/06/02 09:54:43;;;;;;;0.63;0.50;;;21.90;47.30;;;;;;5055072;28;20125;-60
2022/06/02 09:57:55;;;;;;;0.90;0.75;;;21.90;47.20;;;;;;5057001;28;20111;-62
2022/06/02 10:01:02;;;;;;;0.85;0.55;;;21.90;47.20;;;;;;5057635;28;20043;-59
2022/06/02 10:03:42;;;;;;;0.70;0.52;;;21.90;47.30;;;;;;5056268;28;20024;-61
2022/06/02 10:06:30;;;;;;;0.98;0.70;;;21.90;47.30;;;;;;5054127;28;20087;-62
2022/06/02 10:08:58;;;;;;;0.70;0.60;;;21.90;47.20;;;;;;5054892;28;20100;-62
2022/06/02 10:11:40;;;;;;;1.27;0.80;;;21.90;47.20;;;;;;5056582;28;20135;-59
2022/06/02 10:14:52;;;;;;;1.00;0.60;;;21.90;47.20;;;;;;5056189;28;20032;-63
2022/06/02 10:17:49;;;;;;;1.17;0.80;;;21.90;47.20;;;;;;5053064;28;20084;-63
2022/06/02 10:20:41;;;;;;;1.13;0.68;;;21.90;47.10;;;;;;5055069;28;20069;-61
2022/06/02 10:23:39;;;;;;;0.52;0.50;;;21.90;47.10;;;;;;5054121;28;21325;-64
2022/06/02 10:26:31;;;;;;;0.90;0.73;;;21.90;47.10;;;;;;5049871;28;20089;-61
2022/06/02 10:29:12;;;;;;;0.60;0.60;;;21.90;47.00;;;;;;5007812;28;20090;-62
2022/06/02 10:31:52;;;;;;;0.60;0.57;;;21.90;47.00;;;;;;5052984;28;20203;-60
2022/06/02 10:35:00;;;;;;;0.68;0.60;;;21.90;47.00;;;;;;5055472;28;20100;-59
2022/06/02 10:37:56;;;;;;;0.77;0.65;;;21.90;46.90;;;;;;5052545;28;20028;-63
2022/06/02 10:40:47;;;;;;;0.80;0.60;;;21.90;46.90;;;;;;5055083;28;20064;-59
2022/06/02 10:43:26;;;;;;;0.68;0.60;;;21.90;46.90;;;;;;5055631;28;20683;-63
2022/06/02 10:45:55;;;;;;;2.28;0.98;;;22.00;46.90;;;;;;5057539;28;20181;-63
2022/06/02 10:48:39;;;;;;;1.10;0.70;;;22.00;46.90;;;;;;5056131;28;20036;-57
2022/06/02 10:51:19;;;;;;;1.10;0.70;;;21.90;46.80;;;;;;5053778;28;20148;-60
2022/06/02 10:54:24;;;;;;;0.68;0.60;;;21.90;46.80;;;;;;5054454;28;20035;-59
2022/06/02 10:57:27;;;;;;;0.60;0.60;;;21.90;46.80;;;;;;4995155;28;20583;-60
2022/06/02 11:00:17;;;;;;;0.75;0.70;;;22.00;46.80;;;;;;5054601;28;20024;-59
2022/06/02 11:02:55;;;;;;;0.63;0.60;;;21.90;46.70;;;;;;5054765;28;20060;-60
2022/06/02 11:05:50;;;;;;;0.57;0.55;;;22.00;46.70;;;;;;5055775;28;20772;-63
2022/06/02 11:08:24;;;;;;;1.13;0.80;;;22.00;46.70;;;;;;5053120;28;20016;-63
2022/06/02 11:10:55;;;;;;;0.60;0.60;;;22.00;46.70;;;;;;5054099;28;20491;-59
2022/06/02 11:13:33;;;;;;;1.00;0.60;;;21.90;46.70;;;;;;5056623;28;20029;-58
2022/06/02 11:16:04;;;;;;;0.70;0.60;;;22.00;46.70;;;;;;5053119;28;20055;-61
2022/06/02 11:18:49;;;;;;;0.80;0.80;;;21.90;46.70;;;;;;5055579;28;20039;-61
2022/06/02 11:21:43;;;;;;;1.15;0.70;;;22.00;46.70;;;;;;5053918;28;20452;-60
2022/06/02 11:24:28;;;;;;;0.73;0.60;;;22.00;46.70;;;;;;5037054;28;20741;-61
2022/06/02 11:27:18;;;;;;;1.80;0.65;;;22.00;46.60;;;;;;5055677;28;20433;-63
2022/06/02 11:30:02;;;;;;;0.95;0.70;;;21.90;46.50;;;;;;5055454;28;20095;-60
2022/06/02 11:32:36;;;;;;;0.88;0.60;;;22.00;46.60;;;;;;5053999;28;20740;-65
2022/06/02 11:35:31;;;;;;;0.60;0.52;;;22.00;46.60;;;;;;5055493;28;20492;-61
2022/06/02 11:38:22;;;;;;;0.60;0.60;;;22.00;46.60;;;;;;5054450;28;20157;-60
2022/06/02 11:41:00;;;;;;;0.77;0.60;;;22.00;46.60;;;;;;5054046;28;20051;-59
2022/06/02 11:44:04;;;;;;;1.10;0.70;;;22.00;46.50;;;;;;5054581;28;20084;-60
2022/06/02 11:46:33;;;;;;;1.42;0.70;;;22.00;46.60;;;;;;5038109;28;20139;-60
2022/06/02 11:49:31;;;;;;;0.95;0.70;;;22.00;46.60;;;;;;5053469;28;20527;-60
2022/06/02 11:52:30;;;;;;;1.23;0.80;;;22.00;46.50;;;;;;5053025;28;20570;-63
2022/06/02 11:55:20;;;;;;;1.60;0.95;;;22.00;46.50;;;;;;5051830;28;20483;-58
2022/06/02 11:57:57;;;;;;;2.45;1.38;;;22.00;46.50;;;;;;5054992;28;20032;-60
2022/06/02 12:00:50;;;;;;;3.55;2.00;;;22.00;46.50;;;;;;5052922;28;20127;-60
2022/06/02 12:03:48;;;;;;;4.55;2.60;;;22.00;46.50;;;;;;5035393;28;20527;-61
2022/06/02 12:06:29;;;;;;;6.70;3.63;;;22.00;46.50;;;;;;5008975;28;20044;-61
2022/06/02 12:09:06;;;;;;;6.95;4.65;;;22.00;46.50;;;;;;5055693;28;20981;-61
2022/06/02 12:11:53;;;;;;;7.25;4.90;;;22.00;46.50;;;;;;5056184;28;20042;-61
2022/06/02 12:14:36;;;;;;;9.68;6.75;;;22.00;46.50;;;;;;5054753;28;20648;-61
2022/06/02 12:17:32;;;;;;;11.40;7.78;;;22.00;46.50;;;;;;5053710;28;20024;-61
2022/06/02 12:20:43;;;;;;;11.20;7.70;;;22.10;46.60;;;;;;5056224;28;20400;-64
2022/06/02 12:23:21;;;;;;;10.65;7.95;;;22.10;46.50;;;;;;5022211;28;20100;-63
2022/06/02 12:25:49;;;;;;;11.35;7.50;;;22.10;46.50;;;;;;5055101;28;20024;-59
2022/06/02 12:28:41;;;;;;;12.82;8.75;;;22.10;46.50;;;;;;5055267;28;21292;-64
2022/06/02 12:31:12;;;;;;;12.20;8.38;;;22.10;46.50;;;;;;5054409;28;20127;-60
2022/06/02 12:33:49;;;;;;;11.60;8.10;;;22.10;46.50;;;;;;5054975;28;20115;-62
2022/06/02 12:36:52;;;;;;;13.32;7.78;;;22.10;46.50;;;;;;5054268;28;20107;-62
2022/06/02 12:39:27;;;;;;;13.40;8.60;;;22.10;46.50;;;;;;5053772;28;20048;-61
2022/06/02 12:42:11;;;;;;;11.02;7.88;;;22.10;46.50;;;;;;5057548;28;20033;-63
2022/06/02 12:45:06;;;;;;;12.18;8.05;;;22.10;46.50;;;;;;5055842;28;20044;-63
2022/06/02 12:48:07;;;;;;;11.32;7.55;;;22.10;46.50;;;;;;5053166;28;20471;-63
2022/06/02 12:51:15;;;;;;;14.02;8.77;;;22.10;46.50;;;;;;4936698;28;20031;-62
2022/06/02 12:54:11;;;;;;;12.32;7.78;;;22.20;46.60;;;;;;5052382;28;20047;-62
2022/06/02 12:57:24;;;;;;;13.30;8.23;;;22.20;46.60;;;;;;5055008;28;20484;-63
2022/06/02 13:00:34;;;;;;;11.50;8.15;;;22.20;46.70;;;;;;4946351;28;20039;-60
2022/06/02 13:03:43;;;;;;;11.93;8.05;;;22.20;46.70;;;;;;4943644;28;20058;-64
2022/06/02 13:06:27;;;;;;;11.20;7.63;;;22.20;46.80;;;;;;5034466;28;20020;-61
2022/06/02 13:09:15;;;;;;;12.07;7.80;;;22.20;46.80;;;;;;5034699;28;20112;-61
2022/06/02 13:11:53;;;;;;;16.02;7.95;;;22.30;47.00;;;;;;5035559;28;20029;-64
2022/06/02 13:14:53;;;;;;;10.98;7.57;;;22.30;47.00;;;;;;5035644;28;20188;-64
2022/06/02 13:17:56;;;;;;;10.68;7.10;;;22.20;47.50;;;;;;5035402;28;20037;-64
2022/06/02 13:20:36;;;;;;;10.40;6.68;;;22.30;47.00;;;;;;5037194;28;20040;-64
2022/06/02 13:23:35;;;;;;;12.40;7.10;;;22.20;47.00;;;;;;5035141;28;20104;-63
2022/06/02 13:26:37;;;;;;;11.40;7.27;;;22.30;47.10;;;;;;5001927;28;20038;-62
2022/06/02 13:29:09;;;;;;;9.57;6.28;;;22.30;47.20;;;;;;5038249;28;20025;-64
2022/06/02 13:31:53;;;;;;;9.38;5.80;;;22.30;47.20;;;;;;5037686;28;20103;-64
2022/06/02 13:34:25;;;;;;;8.75;5.68;;;22.30;47.10;;;;;;5036954;28;20039;-60
2022/06/02 13:37:21;;;;;;;8.63;6.10;;;22.30;47.10;;;;;;5035909;28;20086;-60
2022/06/02 13:40:15;;;;;;;8.88;5.10;;;22.30;47.10;;;;;;5036957;28;20102;-61
2022/06/02 13:43:13;;;;;;;7.45;5.15;;;22.30;47.10;;;;;;5038108;28;20040;-61
2022/06/02 13:45:45;;;;;;;8.05;5.15;;;22.30;47.10;;;;;;5036247;28;20036;-60
2022/06/02 13:48:19;;;;;;;7.30;5.22;;;22.30;47.10;;;;;;5037893;28;20029;-65
2022/06/02 13:51:26;;;;;;;7.63;5.05;;;22.40;47.10;;;;;;5036759;28;20020;-62
2022/06/02 13:57:55;;;;;;;8.10;4.60;;;22.30;47.00;;;;;;4990676;28;20034;-61
2022/06/02 14:00:28;;;;;;;7.25;4.68;;;22.40;47.00;;;;;;4991645;28;20082;-64
2022/06/02 14:03:06;;;;;;;7.68;4.20;;;22.40;47.00;;;;;;5022888;28;20037;-62
2022/06/02 14:06:05;;;;;;;6.40;4.43;;;22.40;47.00;;;;;;5035406;28;20040;-60
2022/06/02 14:08:49;;;;;;;6.43;4.28;;;22.40;47.00;;;;;;5035708;28;20051;-65
2022/06/02 14:11:35;;;;;;;7.88;5.00;;;22.40;47.00;;;;;;5034418;28;20040;-58
2022/06/02 14:14:51;;;;;;;7.78;4.90;;;22.40;47.00;;;;;;5036422;28;20131;-64
2022/06/02 14:17:42;;;;;;;7.05;4.70;;;22.40;46.90;;;;;;5036530;28;21473;-59
2022/06/02 14:20:14;;;;;;;7.18;4.40;;;22.40;46.90;;;;;;5037152;28;20029;-65
2022/06/02 14:22:55;;;;;;;6.93;4.78;;;22.40;46.90;;;;;;5034678;28;20028;-63
2022/06/02 14:25:28;;;;;;;7.22;4.28;;;22.40;46.90;;;;;;5037836;28;20116;-65
2022/06/02 14:28:25;;;;;;;7.05;4.15;;;22.40;46.80;;;;;;5036848;28;20021;-65
2022/06/02 14:31:20;;;;;;;5.75;3.65;;;22.40;46.80;;;;;;5043208;28;20044;-65
2022/06/02 14:34:00;;;;;;;5.95;3.58;;;22.40;46.80;;;;;;5056798;28;20051;-62
2022/06/02 14:36:54;;;;;;;5.47;3.38;;;22.40;46.80;;;;;;5053403;28;20130;-60